Airfield :
LOGIN :

Register | Disclaimer

   EN    FR    IT 

 










Legend :    VFR   Marginal VFR   IFR   Intensive IFR   Very Intensive IFR
Visi :
Ceiling :
>= 8 km
>= 3000ft
5 to 8 km
1000 to 3000 ft
1500m to 5 km
500 to 1000 ft
800 to 1500m
200 to 500 ft
< 800m
< 200 ft
Symbols :   Thunderstorms  Fog  Heavy snow  Heavy precipitations  Wind > 20 kt
SIGMETs :     Misc.  Thunderstorms  Icing  Turbulence  Mountain Waves  Volcanic Ashes







- Airport Elevation : 160 ft
- IATA code : LRT
- Download approach charts


LFRH - Lorient Lann Bihoue

CURRENT METAR :
  • 231430Z AUTO 26012KT CAVOK 21/15 Q1025 NOSIG

EXPIRED METARs :
  • 231400Z AUTO 27012KT CAVOK 20/14 Q1025 NOSIG
  • 231330Z AUTO 26012KT CAVOK 20/15 Q1025 NOSIG
  • 231300Z AUTO 26011KT 9999 FEW029 19/14 Q1025 NOSIG
  • 231230Z AUTO 26010KT 230V290 9999 BKN029 BKN034 19/14 Q1025 NOSIG
  • 231200Z AUTO 25010KT 9999 BKN027 18/13 Q1025 NOSIG

TAF AMD TAF LFRH
Valid from the 23 at 12:00 until the 24 at 12:00 UTC


231148Z 2312/2412 27010KT 9999 BKN025
BECMG 2318/2320 04008KT
TEMPO 2402/2405 2000 BR BKN002
PROB40
TEMPO 2403/2405 0800 FG VV///
BECMG 2405/2407 CAVOK
No reported NOTAMs for that airfield.



MET'MAP, your aeronautical weather chart ! - Copyright ORBIFLY December 2007 - Disclaimer

ORBIFLY MET'MAP TEAM :

Programming & Development : Alexandra Zaïnal
Concept & Development : Baudouin d'Aumeries
Co-Development & Prog : Marc-Olivier Méhu
Technical & hardware support : Manuel Goepfert

Contact : metmap@orbifly.com




SOURCES & CREDITS :

   NOAA